KFSO

Franklin County State Airport

Highgate, Vermont, USA
METAR KFSO 230955Z AUTO 15003KT 10SM CLR M09/M09 A3068 RMK AO2 T10861093
Observed Flight Rules
Feb-23 @ 09:55 UTC (32 minutes ago) Visual Flight Rules
Wind Visibility Clouds
150° at 3 knots 10 miles
  • Clear skies
Temperatures Readings
Current -9°C / 16°F
Dewpoint -9°C / 16°F
Humidity 100%
Altimeter 30.68" Hg
Pressure 1039 hPa
Elevation 70
METAR KFSO 230955Z AUTO 15003KT 10SM CLR M09/M09 A3068 RMK AO2 T10861093
Observed Flight Rules
Feb-23 @ 09:55 UTC
(32 minutes ago)
VFR
Wind Visibility
150° at 3 knots 10 miles
Clouds
  • Clear skies
Temperature Dewpoint
-9°C / 16°F -9°C / 16°F
Humidity Altimeter Pressure
100% 30.68" Hg 1039 hPa